Time;durP1;ratioP1;P1;durP2;ratioP2;P2;SDS_P1;SDS_P2;PMS_P1;PMS_P2;Temp;Humidity;BMP_temperature;BMP_pressure;BME280_temperature;BME280_humidity;BME280_pressure;Samples;Min_cycle;Max_cycle;Signal;HPM_P1;HPM_P2
2023/03/28 00:01:38;;;;;;;11.40;6.90;;;;;;;-2.23;73.50;96242.17;109387;1272;22633;-81
2023/03/28 00:04:25;;;;;;;10.30;6.10;;;;;;;-2.29;73.72;96241.70;109224;1270;23012;-81
2023/03/28 00:07:04;;;;;;;10.90;6.20;;;;;;;-2.31;73.48;96242.35;109289;1272;22486;-81
2023/03/28 00:09:40;;;;;;;9.90;6.10;;;;;;;-2.39;73.69;96236.67;109284;1268;97428;-81
2023/03/28 00:12:30;;;;;;;11.70;5.80;;;;;;;-2.38;73.74;96236.24;109420;1267;22514;-82
2023/03/28 00:15:04;;;;;;;11.00;6.20;;;;;;;-2.44;73.75;96235.72;109327;1272;22551;-81
2023/03/28 00:17:42;;;;;;;11.30;6.30;;;;;;;-2.49;73.91;96229.80;109366;1272;25438;-81
2023/03/28 00:20:22;;;;;;;11.50;6.90;;;;;;;-2.58;73.83;96233.66;107916;1272;1890815;-81
2023/03/28 00:23:04;;;;;;;12.70;7.00;;;;;;;-2.59;73.93;96234.66;109314;1272;24948;-81
2023/03/28 00:25:42;;;;;;;13.90;7.80;;;;;;;-2.77;74.14;96239.86;109295;1266;25349;-81
2023/03/28 00:28:19;;;;;;;12.50;7.80;;;;;;;-2.96;74.53;96242.02;109333;1272;22537;-81
2023/03/28 00:30:50;;;;;;;12.70;7.40;;;;;;;-3.09;75.20;96238.41;109300;1269;148056;-81
2023/03/28 00:33:36;;;;;;;13.80;7.10;;;;;;;-3.20;75.61;96241.09;109424;1267;22518;-81
2023/03/28 00:36:13;;;;;;;12.80;6.80;;;;;;;-3.27;76.19;96243.59;109325;1272;22519;-81
2023/03/28 00:38:48;;;;;;;13.00;6.60;;;;;;;-3.40;76.48;96241.05;109338;1266;22601;-81
2023/03/28 00:41:24;;;;;;;12.80;6.70;;;;;;;-3.37;76.69;96239.66;107959;1272;1866303;-81
2023/03/28 00:44:08;;;;;;;;;;;;;;;;;;;;;
2023/03/28 00:46:46;;;;;;;11.90;6.80;;;;;;;-3.44;77.11;96236.66;109389;1267;22591;-81
2023/03/28 00:49:30;;;;;;;11.60;6.70;;;;;;;-3.51;77.32;96233.64;109263;1262;81328;-81
2023/03/28 00:52:08;;;;;;;9.80;5.70;;;;;;;-3.54;77.34;96233.02;109391;1266;23784;-81
2023/03/28 00:54:49;;;;;;;9.90;5.70;;;;;;;-3.66;77.64;96236.61;109372;1272;24275;-81
2023/03/28 00:57:22;;;;;;;14.50;7.00;;;;;;;-3.76;78.10;96243.10;109250;1272;22574;-81
2023/03/28 00:59:58;;;;;;;10.10;5.70;;;;;;;-3.84;78.58;96243.60;109285;1272;95744;-81
2023/03/28 01:02:32;;;;;;;9.60;5.40;;;;;;;-3.84;78.94;96242.67;109392;1272;25501;-81
2023/03/28 01:05:05;;;;;;;16.40;8.10;;;;;;;-3.80;79.19;96245.27;109359;1269;22514;-81
2023/03/28 01:07:47;;;;;;;9.10;4.30;;;;;;;-3.90;79.60;96245.19;109359;1272;22603;-81
2023/03/28 01:10:20;;;;;;;15.30;7.50;;;;;;;-4.01;80.01;96249.30;109193;1272;121153;-81
2023/03/28 01:12:56;;;;;;;11.90;6.50;;;;;;;-3.97;80.24;96248.06;109348;1267;22543;-81
2023/03/28 01:15:34;;;;;;;16.20;7.40;;;;;;;-3.99;80.30;96253.20;109290;1272;22571;-80
2023/03/28 01:18:10;;;;;;;10.10;5.80;;;;;;;-4.02;80.60;96253.52;109326;1272;23684;-81
2023/03/28 01:21:18;;;;;;;9.90;5.20;;;;;;;-3.98;80.60;96251.29;105178;1270;5445717;-81
2023/03/28 01:24:31;;;;;;;12.80;6.50;;;;;;;-3.99;80.59;96256.87;109094;1272;22555;-81
2023/03/28 01:27:13;;;;;;;10.70;5.20;;;;;;;-3.97;80.63;96253.61;109292;1272;22582;-81
2023/03/28 01:30:15;;;;;;;10.20;5.20;;;;;;;-3.75;80.45;96250.98;109182;1273;105721;-81
2023/03/28 01:33:15;;;;;;;9.00;5.90;;;;;;;-3.68;80.09;96251.78;109273;1272;22472;-80
2023/03/28 01:36:28;;;;;;;11.50;5.40;;;;;;;-3.69;80.02;96250.19;109166;1273;22524;-80
2023/03/28 01:39:11;;;;;;;8.90;5.00;;;;;;;-3.67;80.06;96247.81;109292;1272;22633;-81
2023/03/28 01:41:55;;;;;;;10.10;5.40;;;;;;;-3.62;79.90;96246.98;109318;1269;93199;-80
2023/03/28 01:44:35;;;;;;;10.60;5.20;;;;;;;-3.72;79.90;96245.69;109318;1272;22469;-81
2023/03/28 01:47:18;;;;;;;7.90;4.80;;;;;;;-3.65;79.93;96239.09;109295;1272;22561;-81
2023/03/28 01:50:01;;;;;;;11.40;6.80;;;;;;;-3.57;79.68;96236.89;107816;1272;2003603;-81
2023/03/28 01:52:41;;;;;;;8.90;5.10;;;;;;;-3.49;79.28;96237.41;109376;1272;25479;-81
2023/03/28 01:55:19;;;;;;;;;;;;;;;-3.57;79.17;96238.30;109351;1269;22616;-81
2023/03/28 01:58:05;;;;;;;12.50;5.40;;;;;;;-3.64;79.20;96246.39;109414;1272;22471;-81
2023/03/28 02:00:49;;;;;;;11.30;6.80;;;;;;;-3.63;79.34;96243.98;109255;1254;91763;-81
2023/03/28 02:03:28;;;;;;;11.80;6.00;;;;;;;-3.62;79.29;96247.34;109356;1272;22515;-81
2023/03/28 02:06:07;;;;;;;11.00;7.00;;;;;;;-3.70;79.25;96248.91;109367;1272;22493;-81
2023/03/28 02:08:45;;;;;;;13.70;7.20;;;;;;;-3.69;79.18;96250.35;109361;1272;22559;-81
2023/03/28 02:11:19;;;;;;;12.30;7.70;;;;;;;-3.71;79.24;96247.28;107435;1272;2529566;-81
2023/03/28 02:14:00;;;;;;;12.60;7.30;;;;;;;-3.70;79.21;96244.45;109417;1272;23740;-81
2023/03/28 02:16:42;;;;;;;12.60;6.60;;;;;;;-3.67;79.10;96249.55;109321;1272;22541;-81
2023/03/28 02:19:23;;;;;;;12.10;6.70;;;;;;;-3.68;79.15;96247.99;109194;1272;22517;-81
2023/03/28 02:22:00;;;;;;;12.70;7.30;;;;;;;-3.70;79.12;96251.58;109352;1272;22598;-81
2023/03/28 02:24:35;;;;;;;13.90;7.40;;;;;;;-3.71;79.16;96254.54;109322;1272;23794;-81
2023/03/28 02:27:07;;;;;;;14.20;7.50;;;;;;;-3.75;79.05;96256.01;109331;1272;22522;-81
2023/03/28 02:29:47;;;;;;;12.10;6.50;;;;;;;-3.78;78.94;96255.49;109289;1263;51774;-81
2023/03/28 02:32:23;;;;;;;13.70;7.70;;;;;;;-3.83;79.09;96252.68;109374;1272;24318;-81
2023/03/28 02:34:58;;;;;;;14.60;7.80;;;;;;;-3.85;79.44;96255.20;109411;1266;22554;-81
2023/03/28 02:37:50;;;;;;;14.10;8.10;;;;;;;-3.88;79.43;96256.89;109298;1272;22963;-81
2023/03/28 02:40:45;;;;;;;12.90;7.70;;;;;;;-3.92;79.43;96257.05;109286;1272;63930;-81
2023/03/28 02:43:55;;;;;;;14.30;7.30;;;;;;;-3.94;79.27;96254.61;109243;1270;24245;-81
2023/03/28 02:46:34;;;;;;;13.50;8.50;;;;;;;-3.97;79.33;96254.44;109318;1272;22480;-80
2023/03/28 02:49:28;;;;;;;14.00;7.60;;;;;;;-3.97;79.50;96260.30;109406;1272;23244;-80
2023/03/28 02:52:13;;;;;;;14.20;8.40;;;;;;;-4.01;79.34;96258.81;109366;1272;22557;-81
2023/03/28 02:54:53;;;;;;;12.60;7.50;;;;;;;-4.00;79.57;96257.07;109268;1272;22947;-81
2023/03/28 02:57:32;;;;;;;12.70;7.80;;;;;;;-3.96;79.71;96251.73;109363;1272;22519;-81
2023/03/28 03:00:16;;;;;;;12.10;7.20;;;;;;;-3.95;79.74;96250.09;105224;1265;5364410;-81
2023/03/28 03:02:54;;;;;;;12.50;7.50;;;;;;;-3.98;79.74;96246.15;109221;1269;22518;-81
2023/03/28 03:05:27;;;;;;;11.60;7.20;;;;;;;-3.99;79.66;96244.55;109262;1272;23939;-81
2023/03/28 03:08:06;;;;;;;13.60;7.80;;;;;;;-3.99;79.78;96244.33;109356;1272;22570;-81
2023/03/28 03:10:40;;;;;;;14.10;7.80;;;;;;;-4.01;79.77;96247.50;109339;1272;62266;-80
2023/03/28 03:13:21;;;;;;;14.20;9.10;;;;;;;-4.04;79.77;96245.67;109395;1272;24359;-81
2023/03/28 03:15:56;;;;;;;13.10;8.60;;;;;;;-4.07;79.95;96244.60;109323;1272;22546;-80
2023/03/28 03:18:27;;;;;;;14.80;8.70;;;;;;;-4.10;80.04;96245.98;109419;1272;22547;-80
2023/03/28 03:21:00;;;;;;;12.20;6.10;;;;;;;-4.11;80.03;96248.42;109266;1268;53616;-80
2023/03/28 03:23:33;;;;;;;13.50;7.40;;;;;;;-4.08;80.42;96250.75;109383;1272;25261;-80
2023/03/28 03:26:05;;;;;;;13.50;7.30;;;;;;;-4.03;80.24;96253.71;109289;1272;23691;-80
2023/03/28 03:28:36;;;;;;;14.80;8.00;;;;;;;-4.03;80.31;96250.73;109351;1272;22539;-80
2023/03/28 03:31:11;;;;;;;14.10;8.20;;;;;;;-4.02;80.16;96250.45;109325;1269;68714;-80
2023/03/28 03:33:45;;;;;;;14.70;8.90;;;;;;;-4.02;80.22;96247.39;109334;1272;22583;-80
2023/03/28 03:36:25;;;;;;;14.90;8.40;;;;;;;-4.00;80.21;96246.78;109292;1272;22522;-80
2023/03/28 03:39:05;;;;;;;16.30;9.60;;;;;;;-3.95;80.23;96250.45;109369;1265;22554;-80
2023/03/28 03:41:41;;;;;;;15.90;9.60;;;;;;;-3.84;80.50;96249.77;108061;1270;1747125;-80
2023/03/28 03:44:12;;;;;;;13.90;8.30;;;;;;;-3.75;80.55;96246.92;109408;1272;22560;-81
2023/03/28 03:46:43;;;;;;;18.20;9.30;;;;;;;-3.65;80.72;96244.47;109412;1268;22626;-81
2023/03/28 03:49:17;;;;;;;16.20;9.70;;;;;;;-3.57;80.82;96239.48;109340;1266;23503;-81
2023/03/28 03:51:52;;;;;;;15.20;9.60;;;;;;;-3.51;80.91;96240.69;109204;1268;148746;-80
2023/03/28 03:54:26;;;;;;;15.10;10.00;;;;;;;-3.44;81.97;96234.76;109296;1267;22521;-80
2023/03/28 03:56:59;;;;;;;14.20;9.60;;;;;;;-3.33;82.03;96236.84;109396;1272;24279;-80
2023/03/28 03:59:34;;;;;;;15.50;9.40;;;;;;;-3.33;81.61;96240.94;109345;1266;22575;-81
2023/03/28 04:02:10;;;;;;;18.70;9.80;;;;;;;-3.33;81.41;96235.98;108045;1272;1762678;-81
2023/03/28 04:04:44;;;;;;;15.40;9.80;;;;;;;-3.33;81.39;96231.13;109319;1272;22625;-81
2023/03/28 04:07:17;;;;;;;20.60;12.60;;;;;;;-3.31;81.86;96238.26;109370;1272;23259;-81
2023/03/28 04:09:56;;;;;;;14.20;9.50;;;;;;;-3.18;83.39;96229.20;109251;1272;90574;-81
2023/03/28 04:12:29;;;;;;;19.60;11.90;;;;;;;-2.90;85.58;96226.08;109349;1265;22597;-81
2023/03/28 04:15:11;;;;;;;;;;;;;;;;;;;;;
2023/03/28 04:17:44;;;;;;;21.10;15.20;;;;;;;-2.57;86.91;96231.27;109296;1272;22486;-81
2023/03/28 04:20:16;;;;;;;13.30;8.80;;;;;;;-2.51;86.85;96229.15;109336;1272;101752;-81
2023/03/28 04:22:49;;;;;;;14.10;10.10;;;;;;;-2.44;87.67;96225.70;109372;1272;22685;-81
2023/03/28 04:25:30;;;;;;;17.40;11.60;;;;;;;-2.38;88.25;96227.93;109348;1272;22600;-81
2023/03/28 04:28:03;;;;;;;22.60;16.70;;;;;;;-2.36;88.48;96227.52;109351;1272;23843;-81
2023/03/28 04:30:43;;;;;;;20.00;15.00;;;;;;;-2.35;88.22;96225.24;109102;1268;85699;-81
2023/03/28 04:33:18;;;;;;;23.10;14.80;;;;;;;-2.31;88.23;96228.73;109265;1268;22528;-81
2023/03/28 04:35:50;;;;;;;21.30;16.10;;;;;;;-2.29;88.70;96224.09;109360;1272;25298;-81
2023/03/28 04:38:26;;;;;;;16.20;9.00;;;;;;;-2.28;89.07;96235.09;109336;1272;22576;-81
2023/03/28 04:41:00;;;;;;;17.40;11.90;;;;;;;-2.25;89.67;96235.95;109295;1271;100405;-81
2023/03/28 04:43:47;;;;;;;12.10;7.80;;;;;;;-2.22;89.69;96230.38;109392;1272;22504;-81
2023/03/28 04:46:19;;;;;;;15.90;10.10;;;;;;;-2.17;89.89;96233.66;109128;1255;22931;-81
2023/03/28 04:49:01;;;;;;;16.70;9.70;;;;;;;-2.14;90.00;96226.17;109215;1250;23030;-81
2023/03/28 04:51:34;;;;;;;12.30;7.20;;;;;;;-2.11;90.26;96237.20;109262;1265;36073;-81
2023/03/28 04:54:09;;;;;;;13.40;8.90;;;;;;;-2.08;90.61;96236.31;109354;1271;22656;-81
2023/03/28 04:56:45;;;;;;;13.00;8.40;;;;;;;-2.05;90.97;96229.77;109360;1272;22527;-81
2023/03/28 04:59:33;;;;;;;14.40;8.90;;;;;;;-2.02;91.03;96242.23;109388;1265;22555;-81
2023/03/28 05:02:05;;;;;;;13.50;9.00;;;;;;;-2.00;91.06;96227.54;107951;1272;1866431;-81
2023/03/28 05:04:51;;;;;;;13.60;9.70;;;;;;;-1.97;91.03;96229.45;109415;1272;22489;-81
2023/03/28 05:07:22;;;;;;;10.20;6.30;;;;;;;-1.94;90.97;96225.77;109393;1265;22528;-81
2023/03/28 05:09:57;;;;;;;13.10;6.00;;;;;;;-1.91;90.80;96236.97;109190;1272;124443;-81
2023/03/28 05:12:36;;;;;;;11.20;7.50;;;;;;;-1.90;90.73;96229.85;107592;1272;22541;-82
2023/03/28 05:15:22;;;;;;;12.20;7.90;;;;;;;-1.86;90.32;96239.27;109366;1272;22628;-81
2023/03/28 05:17:56;;;;;;;11.10;7.70;;;;;;;-1.84;90.45;96238.27;109159;1268;22571;-81
2023/03/28 05:20:43;;;;;;;9.60;5.80;;;;;;;-1.80;90.12;96240.06;109173;1269;85019;-81
2023/03/28 05:23:14;;;;;;;9.20;5.60;;;;;;;-1.77;89.90;96230.53;109041;1268;22634;-81
2023/03/28 05:25:58;;;;;;;7.50;4.90;;;;;;;-1.73;89.85;96229.21;109282;1266;22618;-81
2023/03/28 05:28:38;;;;;;;8.00;5.10;;;;;;;-1.67;89.63;96237.78;109269;1273;22585;-81
2023/03/28 05:31:12;;;;;;;12.10;8.00;;;;;;;-1.61;89.64;96234.86;109127;1268;92182;-82
2023/03/28 05:33:55;;;;;;;11.50;5.40;;;;;;;-1.57;89.46;96232.54;109264;1270;24922;-81
2023/03/28 05:36:29;;;;;;;8.40;5.30;;;;;;;-1.54;89.01;96224.06;109321;1268;22514;-81
2023/03/28 05:39:07;;;;;;;9.00;5.90;;;;;;;-1.53;88.90;96226.30;109284;1265;22616;-81
2023/03/28 05:41:49;;;;;;;7.30;4.60;;;;;;;-1.52;89.22;96230.29;109172;1263;119046;-81
2023/03/28 05:44:22;;;;;;;7.50;4.80;;;;;;;-1.48;89.16;96227.94;109294;1268;22562;-83
2023/03/28 05:46:58;;;;;;;7.80;4.20;;;;;;;-1.48;89.08;96224.14;109292;1268;22562;-81
2023/03/28 05:49:29;;;;;;;7.30;4.10;;;;;;;-1.50;89.31;96226.43;109376;1272;22611;-83
2023/03/28 05:52:00;;;;;;;8.80;5.70;;;;;;;-1.55;90.17;96226.23;109157;1271;77478;-81
2023/03/28 05:54:35;;;;;;;8.70;5.70;;;;;;;-1.59;90.34;96233.64;109352;1265;23893;-81
2023/03/28 05:57:17;;;;;;;7.30;4.80;;;;;;;-1.63;90.56;96234.06;109306;1265;22658;-81
2023/03/28 05:59:52;;;;;;;9.00;5.10;;;;;;;-1.65;90.70;96235.81;109312;1265;25236;-80
2023/03/28 06:02:32;;;;;;;7.40;5.20;;;;;;;-1.63;90.55;96234.08;107766;1265;2042817;-81
2023/03/28 06:05:05;;;;;;;7.10;4.20;;;;;;;-1.56;90.09;96225.51;109348;1272;22601;-80
2023/03/28 06:07:41;;;;;;;6.60;4.20;;;;;;;-1.44;89.43;96222.50;109275;1272;22667;-81
2023/03/28 06:10:17;;;;;;;9.20;4.80;;;;;;;-1.36;88.46;96212.89;109331;1272;35027;-81
2023/03/28 06:12:56;;;;;;;7.80;4.60;;;;;;;-1.29;88.06;96218.45;109332;1249;23919;-80
2023/03/28 06:15:41;;;;;;;5.70;3.60;;;;;;;-1.16;87.31;96209.18;109324;1272;22523;-81
2023/03/28 06:18:27;;;;;;;7.30;4.60;;;;;;;-1.09;87.06;96212.09;109326;1272;22564;-82
2023/03/28 06:21:10;;;;;;;;;;;;;;;;;;;;;
2023/03/28 06:23:42;;;;;;;8.70;5.30;;;;;;;-0.84;85.74;96218.38;109383;1268;22986;-81
2023/03/28 06:26:17;;;;;;;6.10;4.20;;;;;;;-0.92;86.45;96229.77;109350;1265;22634;-81
2023/03/28 06:28:51;;;;;;;5.40;3.80;;;;;;;-0.98;85.99;96227.63;109327;1272;22476;-81
2023/03/28 06:31:24;;;;;;;6.80;4.60;;;;;;;-1.03;85.64;96232.39;109273;1265;71133;-81
2023/03/28 06:33:58;;;;;;;10.20;6.80;;;;;;;-1.08;85.88;96242.66;109302;1272;22526;-81
2023/03/28 06:36:30;;;;;;;9.00;6.70;;;;;;;-1.05;86.07;96252.63;109352;1268;23749;-81
2023/03/28 06:39:06;;;;;;;8.20;5.10;;;;;;;-1.06;86.15;96250.32;109337;1261;22572;-81
2023/03/28 06:41:50;;;;;;;;;;;;;;;;;;;;;
2023/03/28 06:44:23;;;;;;;7.20;4.30;;;;;;;-1.11;84.06;96251.17;109313;1272;22524;-81
2023/03/28 06:47:03;;;;;;;10.80;4.70;;;;;;;-1.12;84.10;96259.02;109339;1272;22820;-80
2023/03/28 06:49:37;;;;;;;8.20;4.30;;;;;;;-1.12;84.14;96272.42;109200;1273;22659;-81
2023/03/28 06:52:09;;;;;;;7.00;4.50;;;;;;;-1.11;83.99;96267.18;107927;1270;1884082;-81
2023/03/28 06:54:42;;;;;;;5.40;3.60;;;;;;;-1.14;83.71;96258.23;109328;1272;23775;-81
2023/03/28 06:57:31;;;;;;;9.50;5.00;;;;;;;-1.01;83.03;96267.64;109340;1265;22595;-82
2023/03/28 07:00:06;;;;;;;5.80;4.40;;;;;;;-0.87;82.42;96272.43;109310;1272;22545;-81
2023/03/28 07:02:42;;;;;;;7.10;4.90;;;;;;;-0.80;81.80;96273.82;109328;1272;22515;-82
2023/03/28 07:05:13;;;;;;;7.70;5.90;;;;;;;-0.63;81.89;96278.19;109293;1265;22535;-82
2023/03/28 07:07:46;;;;;;;6.40;4.20;;;;;;;-0.52;80.66;96275.51;109325;1272;24325;-81
2023/03/28 07:10:20;;;;;;;6.10;4.10;;;;;;;-0.72;80.46;96287.48;109284;1265;77700;-83
2023/03/28 07:12:55;;;;;;;;;;;;;;;-0.87;80.42;96291.61;109342;1272;22524;-83
2023/03/28 07:15:28;;;;;;;8.00;5.10;;;;;;;-0.98;80.58;96296.12;109330;1272;22515;-82
2023/03/28 07:18:09;;;;;;;7.10;4.70;;;;;;;-1.07;80.37;96298.32;109300;1272;22581;-82
2023/03/28 07:20:43;;;;;;;5.60;3.80;;;;;;;-1.13;80.02;96304.23;109244;1272;55522;-81
2023/03/28 07:23:21;;;;;;;7.60;4.80;;;;;;;-1.14;80.41;96304.48;109288;1273;22520;-81
2023/03/28 07:26:01;;;;;;;7.20;4.90;;;;;;;-0.18;81.02;96308.94;109332;1272;22657;-81
2023/03/28 07:28:54;;;;;;;5.20;3.40;;;;;;;0.17;79.71;96307.79;109312;1270;22582;-82
2023/03/28 07:31:51;;;;;;;;;;;;;;;;;;;;;
2023/03/28 07:34:36;;;;;;;4.50;3.50;;;;;;;0.59;78.24;96307.83;109366;1250;22620;-83
2023/03/28 07:37:16;;;;;;;5.90;5.30;;;;;;;1.83;76.10;96306.13;109293;1273;23102;-83
2023/03/28 07:39:55;;;;;;;7.10;4.00;;;;;;;3.75;70.82;96299.22;109267;1268;23689;-83
2023/03/28 07:43:10;;;;;;;4.20;3.40;;;;;;;5.05;65.08;96302.23;109217;1260;23161;-82
2023/03/28 07:46:15;;;;;;;4.10;3.20;;;;;;;6.04;60.75;96305.27;109247;1268;25327;-83
2023/03/28 07:49:38;;;;;;;4.30;3.60;;;;;;;6.24;58.68;96297.77;109312;1273;22549;-84
2023/03/28 07:52:14;;;;;;;4.20;2.90;;;;;;;5.67;56.86;96304.20;107602;1270;1650925;-84
2023/03/28 07:58:34;;;;;;;4.70;3.40;;;;;;;2.75;59.94;96317.03;108707;1277;24012;-84
2023/03/28 08:01:31;;;;;;;3.00;2.50;;;;;;;1.77;63.15;96328.65;104800;1269;5388705;-83
2023/03/28 08:04:17;;;;;;;;;;;;;;;;;;;;;
2023/03/28 08:07:01;;;;;;;2.90;2.40;;;;;;;0.77;67.76;96331.62;108834;1278;22527;-83
2023/03/28 08:09:34;;;;;;;4.80;3.80;;;;;;;0.45;69.50;96332.86;108827;1274;24820;-82
2023/03/28 08:12:13;;;;;;;4.60;2.70;;;;;;;0.06;71.49;96338.02;107747;1274;1880532;-82
2023/03/28 08:15:06;;;;;;;3.50;2.40;;;;;;;-0.31;74.98;96342.23;109220;1268;24199;-82
2023/03/28 08:17:52;;;;;;;5.60;3.70;;;;;;;-0.59;76.98;96341.73;109079;1267;22535;-82
2023/03/28 08:23:16;;;;;;;3.30;3.00;;;;;;;-0.69;78.37;96350.24;109143;1274;22584;-81
2023/03/28 08:25:50;;;;;;;3.30;1.50;;;;;;;-0.81;79.02;96360.95;109174;1274;22463;-81
2023/03/28 08:28:29;;;;;;;3.20;1.50;;;;;;;-0.86;78.42;96359.13;109193;1274;23076;-81
2023/03/28 08:31:08;;;;;;;2.80;1.70;;;;;;;-0.91;77.00;96364.50;109074;1265;57859;-82
2023/03/28 08:33:55;;;;;;;3.10;1.80;;;;;;;-0.94;76.38;96365.90;109145;1274;23286;-82
2023/03/28 08:36:36;;;;;;;5.70;2.30;;;;;;;-0.97;76.54;96376.21;109150;1274;22667;-82
2023/03/28 08:39:23;;;;;;;4.10;2.30;;;;;;;-1.03;76.17;96355.16;109144;1270;22508;-82
2023/03/28 08:42:31;;;;;;;3.10;2.30;;;;;;;-1.17;76.56;96379.13;107708;1269;1790017;-82
2023/03/28 08:45:46;;;;;;;2.60;2.30;;;;;;;-1.38;77.37;96372.01;109056;1274;22574;-82
2023/03/28 08:48:25;;;;;;;2.50;2.10;;;;;;;-1.50;78.33;96397.48;109147;1274;22521;-81
2023/03/28 08:51:18;;;;;;;4.60;2.70;;;;;;;-1.51;79.01;96401.52;105940;1271;5279298;-82
2023/03/28 08:54:03;;;;;;;4.30;2.40;;;;;;;-1.46;80.04;96404.41;109135;1274;22645;-80
2023/03/28 08:56:41;;;;;;;4.90;2.90;;;;;;;-1.23;79.19;96397.13;109167;1274;22739;-81
2023/03/28 08:59:28;;;;;;;3.80;2.50;;;;;;;-0.84;77.58;96384.75;109200;1272;25310;-81
2023/03/28 09:02:00;;;;;;;3.50;2.10;;;;;;;-0.04;75.37;96390.83;109206;1272;117364;-82
2023/03/28 09:04:43;;;;;;;4.20;2.70;;;;;;;0.68;73.29;96385.88;109322;1272;22481;-82
2023/03/28 09:07:25;;;;;;;3.30;2.20;;;;;;;1.43;71.07;96399.58;109322;1261;22528;-83
2023/03/28 09:10:10;;;;;;;4.90;2.90;;;;;;;1.61;68.39;96406.48;109352;1268;22468;-82
2023/03/28 09:13:01;;;;;;;4.50;2.70;;;;;;;1.27;68.42;96400.75;109114;1268;77867;-82
2023/03/28 09:16:05;;;;;;;2.90;2.30;;;;;;;1.23;68.81;96405.40;109337;1265;22529;-84
2023/03/28 09:19:06;;;;;;;4.90;2.50;;;;;;;0.87;68.02;96415.02;109249;1261;22563;-84
2023/03/28 09:22:15;;;;;;;2.70;2.40;;;;;;;0.62;68.41;96404.79;104413;1269;6520939;-83
2023/03/28 09:25:27;;;;;;;2.50;2.00;;;;;;;0.52;69.66;96422.20;109202;1272;22522;-83
2023/03/28 09:28:27;;;;;;;2.90;2.50;;;;;;;0.65;69.68;96427.55;109247;1265;22521;-82
2023/03/28 09:31:06;;;;;;;3.00;2.20;;;;;;;0.68;70.12;96439.02;109296;1268;23284;-82
2023/03/28 09:34:02;;;;;;;3.00;2.20;;;;;;;0.36;70.33;96433.02;109189;1273;96890;-82
2023/03/28 09:36:52;;;;;;;3.30;1.90;;;;;;;-0.16;71.69;96444.02;109294;1272;22513;-82
2023/03/28 09:39:51;;;;;;;3.10;2.20;;;;;;;-0.16;72.08;96449.63;109263;1265;22625;-82
2023/03/28 09:42:40;;;;;;;3.10;2.40;;;;;;;0.06;72.36;96455.63;105361;1266;5257971;-82
2023/03/28 09:45:42;;;;;;;4.70;3.50;;;;;;;0.34;72.13;96458.79;109366;1272;22539;-83
2023/03/28 09:48:23;;;;;;;2.30;1.90;;;;;;;0.60;71.73;96444.17;109283;1268;22518;-83
2023/03/28 09:51:06;;;;;;;5.00;3.10;;;;;;;0.58;70.98;96444.76;109273;1272;22949;-82
2023/03/28 09:53:55;;;;;;;4.30;3.50;;;;;;;0.51;71.01;96444.56;105115;1268;5374271;-82
2023/03/28 09:57:10;;;;;;;3.90;2.80;;;;;;;0.47;72.25;96465.14;109307;1271;25384;-82
2023/03/28 09:59:53;;;;;;;4.70;2.90;;;;;;;0.49;72.23;96471.86;109317;1272;23070;-82
2023/03/28 10:02:43;;;;;;;3.90;2.80;;;;;;;0.26;74.07;96467.13;107917;1272;1811060;-83
2023/03/28 10:05:44;;;;;;;3.90;3.40;;;;;;;0.10;75.59;96485.70;108810;1271;24268;-82
2023/03/28 10:08:25;;;;;;;;;;;;;;;0.14;76.63;96489.90;108818;1276;25394;-82
2023/03/28 10:11:34;;;;;;;3.70;2.30;;;;;;;0.09;76.51;96494.21;108839;1271;22557;-82
2023/03/28 10:28:54;;;;;;;2.40;1.70;;;;;;;0.70;70.67;96505.05;106806;1299;558038;-84
2023/03/28 10:32:07;;;;;;;4.20;2.60;;;;;;;0.79;69.23;96525.80;108836;1270;805012;-84
2023/03/28 10:35:40;;;;;;;3.50;2.50;;;;;;;0.76;69.76;96521.53;109392;1272;22647;-83
2023/03/28 10:38:45;;;;;;;3.00;2.10;;;;;;;0.74;70.03;96523.13;109410;1266;22537;-83
2023/03/28 10:42:00;;;;;;;;;;;;;;;;;;;;;
2023/03/28 10:44:39;;;;;;;4.20;2.70;;;;;;;0.15;72.09;96540.64;109001;1273;72242;-84
2023/03/28 10:47:32;;;;;;;3.40;2.10;;;;;;;0.12;72.67;96561.27;109397;1272;22547;-82
2023/03/28 10:50:54;;;;;;;3.50;2.10;;;;;;;0.09;73.29;96545.41;109433;1272;23250;-84
2023/03/28 10:53:39;;;;;;;4.60;2.70;;;;;;;0.03;75.46;96562.52;108671;1277;132166;-85
2023/03/28 10:56:32;;;;;;;2.40;2.10;;;;;;;0.33;75.58;96569.77;108637;1280;24235;-84
2023/03/28 10:59:36;;;;;;;3.90;2.40;;;;;;;0.68;73.52;96555.16;108614;1280;23360;-84
2023/03/28 11:03:05;;;;;;;;;;;;;;;;;;;;;
2023/03/28 11:06:06;;;;;;;3.30;2.10;;;;;;;1.42;72.58;96556.33;108610;1272;23383;-85
2023/03/28 11:08:53;;;;;;;2.20;1.80;;;;;;;1.34;71.20;96551.88;108786;1279;22945;-86
2023/03/28 11:11:47;;;;;;;3.50;2.60;;;;;;;1.03;71.47;96563.95;108820;1276;25047;-86
2023/03/28 11:14:37;;;;;;;4.30;2.90;;;;;;;1.23;72.08;96556.65;107205;1271;2051508;-86
2023/03/28 11:17:40;;;;;;;;;;;;;;;;;;;;;
2023/03/28 11:20:51;;;;;;;4.60;2.50;;;;;;;1.91;70.32;96556.94;108616;1280;23988;-86
2023/03/28 11:24:19;;;;;;;4.70;2.50;;;;;;;2.00;69.67;96554.76;104994;1267;5072561;-86
2023/03/28 11:27:06;;;;;;;4.30;2.50;;;;;;;1.82;68.35;96552.42;109340;1269;22524;-86
2023/03/28 11:29:50;;;;;;;2.80;1.90;;;;;;;0.88;68.55;96560.64;109389;1272;23228;-86
2023/03/28 11:32:31;;;;;;;2.00;1.60;;;;;;;0.03;72.01;96585.08;109370;1272;22571;-85
2023/03/28 11:35:07;;;;;;;4.60;2.20;;;;;;;-0.46;75.18;96590.09;107801;1261;2163876;-84
2023/03/28 11:37:41;;;;;;;3.60;2.30;;;;;;;-0.50;76.79;96596.48;109367;1266;22597;-84
2023/03/28 11:40:20;;;;;;;3.40;2.90;;;;;;;-0.31;77.25;96593.69;109376;1272;22561;-84
2023/03/28 11:42:56;;;;;;;2.80;2.00;;;;;;;-0.07;76.94;96591.69;107386;1272;2617667;-84
2023/03/28 11:45:56;;;;;;;;;;;;;;;;;;;;;
2023/03/28 11:48:37;;;;;;;4.90;3.20;;;;;;;0.86;75.28;96575.66;109342;1272;25217;-84
2023/03/28 11:51:27;;;;;;;3.00;2.00;;;;;;;0.95;73.18;96583.95;109331;1266;22553;-84
2023/03/28 11:54:21;;;;;;;3.40;2.10;;;;;;;0.82;71.34;96576.55;108963;1272;125236;-84
2023/03/28 11:59:58;;;;;;;;;;;;;;;;;;;;;
2023/03/28 12:02:50;;;;;;;6.50;2.90;;;;;;;0.58;71.83;96578.91;109394;1266;23467;-85
2023/03/28 12:05:55;;;;;;;5.10;2.50;;;;;;;1.18;70.98;96574.89;109197;1266;22482;-85
2023/03/28 12:08:58;;;;;;;;;;;;;;;;;;;;;
2023/03/28 12:11:39;;;;;;;4.40;1.80;;;;;;;1.18;68.85;96569.58;109167;1274;25310;-86
2023/03/28 12:14:58;;;;;;;3.40;2.00;;;;;;;1.06;68.41;96579.00;107506;1274;1841621;-85
2023/03/28 12:17:45;;;;;;;2.40;1.70;;;;;;;1.24;67.21;96581.77;109209;1273;25431;-85
2023/03/28 12:20:29;;;;;;;2.60;1.50;;;;;;;1.09;65.70;96582.19;109222;1273;22510;-84
2023/03/28 12:23:08;;;;;;;4.00;2.80;;;;;;;0.77;65.05;96588.56;109322;1273;22603;-84
2023/03/28 12:26:08;;;;;;;1.70;1.50;;;;;;;0.66;66.47;96603.36;109352;1266;22546;-84
2023/03/28 12:28:42;;;;;;;4.90;2.20;;;;;;;0.66;66.73;96608.58;109372;1272;25329;-84
2023/03/28 12:31:20;;;;;;;3.60;2.30;;;;;;;0.57;68.05;96607.26;109353;1272;24234;-84
2023/03/28 12:34:05;;;;;;;3.60;2.10;;;;;;;0.50;68.52;96615.71;109194;1272;115071;-84
2023/03/28 12:36:47;;;;;;;4.50;2.00;;;;;;;0.31;69.07;96615.22;109207;1266;22545;-84
2023/03/28 12:39:39;;;;;;;2.70;2.30;;;;;;;0.09;69.70;96615.19;109279;1273;22556;-84
2023/03/28 12:42:22;;;;;;;3.50;2.80;;;;;;;0.48;70.37;96623.79;109248;1265;22465;-84
2023/03/28 12:45:38;;;;;;;2.80;1.90;;;;;;;1.24;69.97;96616.08;104958;1274;5260338;-84
2023/03/28 12:48:42;;;;;;;3.90;1.70;;;;;;;1.50;66.85;96611.90;108961;1266;24231;-84
2023/03/28 12:51:24;;;;;;;3.60;2.50;;;;;;;1.51;66.85;96607.75;109294;1266;22624;-85
2023/03/28 12:54:23;;;;;;;3.40;2.20;;;;;;;1.52;65.87;96604.81;109165;1267;66023;-84
2023/03/28 12:57:11;;;;;;;4.90;2.40;;;;;;;1.42;64.99;96602.45;109232;1273;22485;-84
2023/03/28 12:59:57;;;;;;;;;;;;;;;1.11;64.14;96599.48;109322;1273;22474;-84
2023/03/28 13:02:48;;;;;;;;;;;;;;;;;;;;;
2023/03/28 13:05:24;;;;;;;3.30;2.00;;;;;;;0.72;64.07;96602.66;109261;1272;132868;-84
2023/03/28 13:08:18;;;;;;;3.80;2.60;;;;;;;0.87;64.98;96595.08;109298;1269;22580;-84
2023/03/28 13:11:07;;;;;;;3.10;2.10;;;;;;;1.09;64.53;96588.33;109357;1272;22672;-84
2023/03/28 13:13:57;;;;;;;5.80;3.70;;;;;;;1.16;64.57;96591.83;105200;1260;5422664;-84
2023/03/28 13:16:50;;;;;;;4.30;1.80;;;;;;;1.16;64.31;96589.53;109205;1273;22481;-84
2023/03/28 13:19:44;;;;;;;3.40;1.70;;;;;;;0.92;62.56;96600.94;109313;1270;22728;-84
2023/03/28 13:22:41;;;;;;;5.10;2.50;;;;;;;0.54;63.03;96615.79;109361;1265;22566;-84
2023/03/28 13:25:55;;;;;;;;;;;;;;;;;;;;;